Skagerak — SGCD — position and weather

sailwx.info

Track history (hours):
 
Tides and Currents Weather Stations Pressure Air Temp Water Temp Dewpoint Dewpoint Depression Visibility Wind Speed Wind Dir Waves Ship Positions

Oceanographic research ship Skagerak (Sweden)

Detailed information on ship capabilities available from University of Delaware's Ocean Information Center.

Last reported at 2017-May-27 23:07 UTC. Time now 2017-May-29 03:45 UTC.
Position N 58°15' E 011°27'.

Length 38 m; draft 3.8 m.

Type: Dredging. MMSI: 265280000.

Date/timePositionNaut miles runAvg speedWind from/ knotsBaromVisibWave heightAir tempDewpointWater temp
2017-May-27 23:07N 58°15' E 011°27'0 0.0
2017-May-27 22:29N 58°15' E 011°27'0 0.0
2017-May-27 22:00N 58°15' E 011°27'0 0.0
2017-May-27 17:44N 58°15' E 011°27'0 0.0
2017-May-27 17:01N 58°15' E 011°27'0 0.0
2017-May-27 16:48N 58°15' E 011°27'0 0.0
2017-May-27 16:28N 58°15' E 011°27'0 0.0
2017-May-27 15:28N 58°15' E 011°27'0 0.0
2017-May-27 15:00N 58°15' E 011°27'0 0.0
2017-May-27 13:50N 58°15' E 011°27'0 0.0
2017-May-26 23:31N 58°15' E 011°27'0 0.0
2017-May-26 23:30N 58°15' E 011°27'0 0.0
2017-May-26 21:21N 58°15' E 011°27'0 0.0
2017-May-26 20:40N 58°15' E 011°27'0 0.0
2017-May-26 20:27N 58°15' E 011°27'0 0.0
2017-May-26 20:00N 58°15' E 011°27'0 0.0
2017-May-26 19:29N 58°15' E 011°27'0 0.0
2017-May-25 14:37N 58°15' E 011°27'6 8.0
2017-May-25 13:54N 58°17' E 011°16'4 9.7
2017-May-25 13:30N 58°20' E 011°11'5 9.3
2017-May-25 13:00N 58°24' E 011°09'5 9.8
2017-May-25 12:30N 58°29' E 011°09'5 9.9
2017-May-25 12:01N 58°34' E 011°08'3 6.0
2017-May-25 11:31N 58°37' E 011°07'3 5.6
2017-May-25 11:00N 58°39' E 011°03'2 4.1
2017-May-25 10:30N 58°39' E 011°07'4 7.9
2017-May-25 10:00N 58°42' E 011°01'2 5.0
2017-May-25 09:30N 58°42' E 011°05'3 5.7
2017-May-25 09:00N 58°44' E 011°02'2 3.1
2017-May-25 08:31N 58°46' E 011°01'3 6.7
2017-May-25 08:00N 58°49' E 011°05'3 5.3
2017-May-25 07:30N 58°46' E 011°04'5 9.8
2017-May-25 07:00N 58°41' E 011°05'5 9.9
2017-May-25 06:30N 58°36' E 011°06'5 9.8
2017-May-25 06:00N 58°31' E 011°05'510.0
2017-May-25 05:30N 58°26' E 011°05'510.4
2017-May-25 05:00N 58°21' E 011°04'510.4
2017-May-25 04:30N 58°16' E 011°03'2 3.1
2017-May-25 03:54N 58°14' E 011°03'410.0
2017-May-25 03:29N 58°10' E 011°02'2 5.0
2017-May-25 03:00N 58°07' E 011°01'2 4.6
2017-May-25 02:29N 58°05' E 011°03'510.2
2017-May-25 01:59N 58°00' E 011°07'510.0
2017-May-25 01:30N 57°56' E 011°11'5 9.1
2017-May-25 01:00N 57°52' E 011°14'5 9.1
2017-May-25 00:30N 57°48' E 011°18'4 8.8
2017-May-25 00:00N 57°44' E 011°21'5 9.3
2017-May-24 23:30N 57°39' E 011°24'5 9.4
2017-May-24 23:00N 57°35' E 011°28'5 9.2
2017-May-24 22:30N 57°31' E 011°31'5 9.3
2017-May-24 22:00N 57°27' E 011°35'5 9.5
2017-May-24 21:29N 57°22' E 011°38'5 9.8
2017-May-24 20:59N 57°18' E 011°42'510.0
2017-May-24 20:30N 57°13' E 011°45'8 9.8
2017-May-24 19:43N 57°06' E 011°50'9 9.4
2017-May-24 18:47N 56°58' E 011°57'3 9.4
2017-May-24 18:28N 56°55' E 011°59'6 9.4
2017-May-24 17:51N 56°50' E 012°02'3 9.5
2017-May-24 17:29N 56°46' E 012°04'5 9.5
2017-May-24 17:00N 56°42' E 012°07'31 9.3
2017-May-24 13:42N 56°13' E 012°24'1 3.6
2017-May-24 13:30N 56°12' E 012°25'5 9.7
2017-May-24 13:00N 56°09' E 012°31'4 8.1
2017-May-24 12:30N 56°06' E 012°35'4 7.9
2017-May-24 12:00N 56°03' E 012°40'4 8.2
2017-May-24 11:30N 55°59' E 012°42'5 9.2
2017-May-24 11:00N 55°54' E 012°44'5 9.1
2017-May-24 10:30N 55°50' E 012°46'5 9.5
2017-May-24 10:00N 55°46' E 012°50'4 7.8
2017-May-24 09:30N 55°42' E 012°53'3 6.2
2017-May-24 09:00N 55°45' E 012°50'3 6.2
2017-May-24 08:30N 55°48' E 012°50'4 7.9
2017-May-24 08:00N 55°50' E 012°44'611.1
2017-May-24 07:30N 55°56' E 012°43'611.2
2017-May-24 07:00N 56°01' E 012°40'611.5
2017-May-24 06:30N 56°06' E 012°34'4 8.9
2017-May-24 06:00N 56°10' E 012°30'3 4.2
2017-May-24 05:22N 56°12' E 012°33'0 0.1
2017-May-24 04:35N 56°12' E 012°33'0 0.1
2017-May-24 04:29N 56°12' E 012°33'0 0.0
2017-May-24 04:00N 56°12' E 012°33'0 0.0
2017-May-24 03:30N 56°12' E 012°33'0 0.0
2017-May-24 03:00N 56°12' E 012°33'0 0.0
2017-May-24 02:29N 56°12' E 012°33'0 0.0
2017-May-24 02:00N 56°12' E 012°33'0 0.0
2017-May-24 01:30N 56°12' E 012°33'0 0.0
2017-May-24 01:00N 56°12' E 012°33'0 0.0
2017-May-24 00:30N 56°12' E 012°33'0 0.0
2017-May-24 00:00N 56°12' E 012°33'0 0.1
2017-May-23 23:27N 56°12' E 012°33'0 0.2
2017-May-23 23:00N 56°12' E 012°33'0 0.0
2017-May-23 22:30N 56°12' E 012°33'0 0.0
2017-May-23 22:00N 56°12' E 012°33'2 3.0
2017-May-23 21:30N 56°12' E 012°30'21 4.8
2017-May-23 17:11N 56°32' E 012°39'1 8.1
2017-May-23 17:00N 56°33' E 012°41'4 7.4
2017-May-23 16:30N 56°35' E 012°46'3 3.9
2017-May-23 15:37N 56°37' E 012°41'0 3.5
2017-May-23 15:30N 56°37' E 012°41'4 8.3
2017-May-23 15:00N 56°41' E 012°39'13 8.9
2017-May-23 13:29N 56°41' E 012°15'4 8.9
2017-May-23 13:00N 56°40' E 012°07'10 8.1
2017-May-23 11:44N 56°44' E 012°25'5 5.8
2017-May-23 10:57N 56°44' E 012°33'4 6.2
2017-May-23 10:19N 56°48' E 012°32'3 8.2
2017-May-23 10:00N 56°50' E 012°30'1 2.3
2017-May-23 09:28N 56°52' E 012°29'17 8.5
2017-May-23 07:29N 56°51' E 011°58'5 9.6
2017-May-23 07:00N 56°55' E 011°60'10 6.8
2017-May-23 05:35N 57°02' E 011°48'0 0.1
2017-May-23 05:30N 57°02' E 011°48'610.3
2017-May-23 04:56N 57°03' E 011°58'9 1.8
2017-May-22 23:49N 57°07' E 012°15'13 2.1
2017-May-22 17:40N 57°10' E 011°52'5 7.0
2017-May-22 17:00N 57°11' E 011°44'3 6.5
2017-May-22 16:30N 57°14' E 011°40'610.7
2017-May-22 15:58N 57°19' E 011°40'3 6.5
2017-May-22 15:30N 57°20' E 011°46'3 6.6
2017-May-22 15:00N 57°21' E 011°52'7 7.4
2017-May-22 14:01N 57°26' E 011°42'2 4.3
2017-May-22 13:31N 57°28' E 011°42'4 8.7
2017-May-22 13:00N 57°30' E 011°48'3 6.3
2017-May-22 12:30N 57°32' E 011°44'5 9.7
2017-May-22 12:00N 57°33' E 011°35'3 5.4
2017-May-22 11:30N 57°34' E 011°30'510.8
2017-May-22 11:00N 57°38' E 011°24'510.5
2017-May-22 10:30N 57°43' E 011°19'711.1
2017-May-22 09:51N 57°49' E 011°12'410.8
2017-May-22 09:29N 57°52' E 011°08'5 9.5
2017-May-22 09:00N 57°56' E 011°03'3 6.6
2017-May-22 08:30N 57°59' E 011°06'5 9.2
2017-May-22 08:00N 58°02' E 011°11'4 9.0
2017-May-22 07:30N 58°06' E 011°16'5 9.5
2017-May-22 07:00N 58°10' E 011°21'510.1
2017-May-22 06:30N 58°14' E 011°25'1 0.6
2017-May-22 04:58N 58°15' E 011°27'0 0.0
2017-May-22 04:30N 58°15' E 011°27'0 0.0
2017-May-22 03:57N 58°15' E 011°27'0 0.0
2017-May-22 01:45N 58°15' E 011°27'0 0.0
2017-May-21 11:30N 58°15' E 011°27'0 0.0
2017-May-19 14:57N 58°15' E 011°27'9 9.8
2017-May-19 14:00N 58°14' E 011°09'5 9.6
2017-May-19 13:30N 58°13' E 011°00'510.3
2017-May-19 13:00N 58°12' E 010°51'4 7.5
2017-May-19 12:29N 58°13' E 010°44'3 6.3
2017-May-19 11:59N 58°14' E 010°38'510.5
2017-May-19 11:29N 58°18' E 010°44'510.3
2017-May-19 11:00N 58°22' E 010°50'3 6.1
2017-May-19 10:30N 58°24' E 010°53'4 8.7
2017-May-19 10:00N 58°27' E 010°46'4 7.9
2017-May-19 09:27N 58°29' E 010°38'1 2.2
2017-May-19 08:54N 58°29' E 010°36'410.3
2017-May-19 08:30N 58°31' E 010°43'3 6.1
2017-May-19 07:59N 58°34' E 010°46'510.2
2017-May-19 07:31N 58°38' E 010°44'510.5
2017-May-19 07:00N 58°43' E 010°40'4 7.3
2017-May-19 06:30N 58°47' E 010°42'4 9.0
2017-May-19 06:01N 58°51' E 010°46'4 8.7
2017-May-19 05:31N 58°53' E 010°53'510.2
2017-May-19 05:00N 58°56' E 011°01'5 9.1
2017-May-19 04:31N 58°56' E 011°10'0 0.3
2017-May-19 04:00N 58°56' E 011°10'0 0.0
2017-May-19 03:30N 58°56' E 011°10'0 0.0
2017-May-19 03:00N 58°56' E 011°10'0 0.0
2017-May-19 02:31N 58°56' E 011°10'0 0.0
2017-May-19 02:00N 58°56' E 011°10'0 0.0
2017-May-19 01:30N 58°56' E 011°10'0 0.0
2017-May-19 01:01N 58°56' E 011°10'0 0.0
2017-May-19 00:30N 58°56' E 011°10'0 0.0
2017-May-19 00:00N 58°56' E 011°10'0 0.0
2017-May-18 23:30N 58°56' E 011°10'0 0.0
2017-May-18 23:00N 58°56' E 011°10'0 0.0
2017-May-18 22:30N 58°56' E 011°10'0 0.0
2017-May-18 22:00N 58°56' E 011°10'0 0.0
2017-May-18 21:30N 58°56' E 011°10'0 0.0
2017-May-18 21:01N 58°56' E 011°10'0 0.0
2017-May-18 20:30N 58°56' E 011°10'0 0.0
2017-May-18 20:00N 58°56' E 011°10'0 0.0
2017-May-18 19:30N 58°56' E 011°10'0 0.0
2017-May-18 19:00N 58°56' E 011°10'0 0.0
2017-May-18 18:30N 58°56' E 011°10'0 0.0
2017-May-18 18:00N 58°56' E 011°10'0 0.0
2017-May-18 17:30N 58°56' E 011°10'0 0.0
2017-May-18 17:00N 58°56' E 011°10'3 6.0
2017-May-18 16:31N 58°55' E 011°05'4 7.2
2017-May-18 16:00N 58°51' E 011°06'2 3.3
2017-May-18 15:30N 58°49' E 011°05'2 3.9
2017-May-18 15:00N 58°48' E 011°07'5 9.5
2017-May-18 14:31N 58°43' E 011°10'6 6.2
2017-May-18 13:30N 58°38' E 011°16'2 4.9
2017-May-18 13:00N 58°36' E 011°12'1 2.3
2017-May-18 12:30N 58°36' E 011°14'1 2.2
2017-May-18 12:01N 58°35' E 011°14'1 1.9
2017-May-18 11:25N 58°34' E 011°15'2 4.0
2017-May-18 11:00N 58°33' E 011°13'2 3.5
2017-May-18 10:30N 58°32' E 011°15'0 0.5
2017-May-18 10:00N 58°32' E 011°15'4 8.6
2017-May-18 09:30N 58°28' E 011°13'5 9.4
2017-May-18 09:00N 58°23' E 011°13'1 2.0
2017-May-18 08:30N 58°23' E 011°14'1 2.4
2017-May-18 08:00N 58°22' E 011°14'1 2.9
2017-May-18 07:30N 58°21' E 011°14'2 3.6
2017-May-18 07:00N 58°19' E 011°13'5 9.8
2017-May-18 06:30N 58°16' E 011°21'  
Track history (hours):
 
Tides and Currents Weather Stations Pressure Air Temp Water Temp Dewpoint Dewpoint Depression Visibility Wind Speed Wind Dir Waves Ship Positions

Oceanographic research ship Skagerak (Sweden)

Detailed information on ship capabilities available from University of Delaware's Ocean Information Center.

Last reported at 2017-May-27 23:07 UTC. Time now 2017-May-29 03:45 UTC.
Position N 58°15' E 011°27'.

Length 38 m; draft 3.8 m.

Type: Dredging. MMSI: 265280000.

Date/timePositionNaut miles runAvg speedWind from/ knotsBaromVisibWave heightAir tempDewpointWater temp
2017-May-27 23:07N 58°15' E 011°27'0 0.0
2017-May-27 22:29N 58°15' E 011°27'0 0.0
2017-May-27 22:00N 58°15' E 011°27'0 0.0
2017-May-27 17:44N 58°15' E 011°27'0 0.0
2017-May-27 17:01N 58°15' E 011°27'0 0.0
2017-May-27 16:48N 58°15' E 011°27'0 0.0
2017-May-27 16:28N 58°15' E 011°27'0 0.0
2017-May-27 15:28N 58°15' E 011°27'0 0.0
2017-May-27 15:00N 58°15' E 011°27'0 0.0
2017-May-27 13:50N 58°15' E 011°27'0 0.0
2017-May-26 23:31N 58°15' E 011°27'0 0.0
2017-May-26 23:30N 58°15' E 011°27'0 0.0
2017-May-26 21:21N 58°15' E 011°27'0 0.0
2017-May-26 20:40N 58°15' E 011°27'0 0.0
2017-May-26 20:27N 58°15' E 011°27'0 0.0
2017-May-26 20:00N 58°15' E 011°27'0 0.0
2017-May-26 19:29N 58°15' E 011°27'0 0.0
2017-May-25 14:37N 58°15' E 011°27'6 8.0
2017-May-25 13:54N 58°17' E 011°16'4 9.7
2017-May-25 13:30N 58°20' E 011°11'5 9.3
2017-May-25 13:00N 58°24' E 011°09'5 9.8
2017-May-25 12:30N 58°29' E 011°09'5 9.9
2017-May-25 12:01N 58°34' E 011°08'3 6.0
2017-May-25 11:31N 58°37' E 011°07'3 5.6
2017-May-25 11:00N 58°39' E 011°03'2 4.1
2017-May-25 10:30N 58°39' E 011°07'4 7.9
2017-May-25 10:00N 58°42' E 011°01'2 5.0
2017-May-25 09:30N 58°42' E 011°05'3 5.7
2017-May-25 09:00N 58°44' E 011°02'2 3.1
2017-May-25 08:31N 58°46' E 011°01'3 6.7
2017-May-25 08:00N 58°49' E 011°05'3 5.3
2017-May-25 07:30N 58°46' E 011°04'5 9.8
2017-May-25 07:00N 58°41' E 011°05'5 9.9
2017-May-25 06:30N 58°36' E 011°06'5 9.8
2017-May-25 06:00N 58°31' E 011°05'510.0
2017-May-25 05:30N 58°26' E 011°05'510.4
2017-May-25 05:00N 58°21' E 011°04'510.4
2017-May-25 04:30N 58°16' E 011°03'2 3.1
2017-May-25 03:54N 58°14' E 011°03'410.0
2017-May-25 03:29N 58°10' E 011°02'2 5.0
2017-May-25 03:00N 58°07' E 011°01'2 4.6
2017-May-25 02:29N 58°05' E 011°03'510.2
2017-May-25 01:59N 58°00' E 011°07'510.0
2017-May-25 01:30N 57°56' E 011°11'5 9.1
2017-May-25 01:00N 57°52' E 011°14'5 9.1
2017-May-25 00:30N 57°48' E 011°18'4 8.8
2017-May-25 00:00N 57°44' E 011°21'5 9.3
2017-May-24 23:30N 57°39' E 011°24'5 9.4
2017-May-24 23:00N 57°35' E 011°28'5 9.2
2017-May-24 22:30N 57°31' E 011°31'5 9.3
2017-May-24 22:00N 57°27' E 011°35'5 9.5
2017-May-24 21:29N 57°22' E 011°38'5 9.8
2017-May-24 20:59N 57°18' E 011°42'510.0
2017-May-24 20:30N 57°13' E 011°45'8 9.8
2017-May-24 19:43N 57°06' E 011°50'9 9.4
2017-May-24 18:47N 56°58' E 011°57'3 9.4
2017-May-24 18:28N 56°55' E 011°59'6 9.4
2017-May-24 17:51N 56°50' E 012°02'3 9.5
2017-May-24 17:29N 56°46' E 012°04'5 9.5
2017-May-24 17:00N 56°42' E 012°07'31 9.3
2017-May-24 13:42N 56°13' E 012°24'1 3.6
2017-May-24 13:30N 56°12' E 012°25'5 9.7
2017-May-24 13:00N 56°09' E 012°31'4 8.1
2017-May-24 12:30N 56°06' E 012°35'4 7.9
2017-May-24 12:00N 56°03' E 012°40'4 8.2
2017-May-24 11:30N 55°59' E 012°42'5 9.2
2017-May-24 11:00N 55°54' E 012°44'5 9.1
2017-May-24 10:30N 55°50' E 012°46'5 9.5
2017-May-24 10:00N 55°46' E 012°50'4 7.8
2017-May-24 09:30N 55°42' E 012°53'3 6.2
2017-May-24 09:00N 55°45' E 012°50'3 6.2
2017-May-24 08:30N 55°48' E 012°50'4 7.9
2017-May-24 08:00N 55°50' E 012°44'611.1
2017-May-24 07:30N 55°56' E 012°43'611.2
2017-May-24 07:00N 56°01' E 012°40'611.5
2017-May-24 06:30N 56°06' E 012°34'4 8.9
2017-May-24 06:00N 56°10' E 012°30'3 4.2
2017-May-24 05:22N 56°12' E 012°33'0 0.1
2017-May-24 04:35N 56°12' E 012°33'0 0.1
2017-May-24 04:29N 56°12' E 012°33'0 0.0
2017-May-24 04:00N 56°12' E 012°33'0 0.0
2017-May-24 03:30N 56°12' E 012°33'0 0.0
2017-May-24 03:00N 56°12' E 012°33'0 0.0
2017-May-24 02:29N 56°12' E 012°33'0 0.0
2017-May-24 02:00N 56°12' E 012°33'0 0.0
2017-May-24 01:30N 56°12' E 012°33'0 0.0
2017-May-24 01:00N 56°12' E 012°33'0 0.0
2017-May-24 00:30N 56°12' E 012°33'0 0.0
2017-May-24 00:00N 56°12' E 012°33'0 0.1
2017-May-23 23:27N 56°12' E 012°33'0 0.2
2017-May-23 23:00N 56°12' E 012°33'0 0.0
2017-May-23 22:30N 56°12' E 012°33'0 0.0
2017-May-23 22:00N 56°12' E 012°33'2 3.0
2017-May-23 21:30N 56°12' E 012°30'21 4.8
2017-May-23 17:11N 56°32' E 012°39'1 8.1
2017-May-23 17:00N 56°33' E 012°41'4 7.4
2017-May-23 16:30N 56°35' E 012°46'3 3.9
2017-May-23 15:37N 56°37' E 012°41'0 3.5
2017-May-23 15:30N 56°37' E 012°41'4 8.3
2017-May-23 15:00N 56°41' E 012°39'13 8.9
2017-May-23 13:29N 56°41' E 012°15'4 8.9
2017-May-23 13:00N 56°40' E 012°07'10 8.1
2017-May-23 11:44N 56°44' E 012°25'5 5.8
2017-May-23 10:57N 56°44' E 012°33'4 6.2
2017-May-23 10:19N 56°48' E 012°32'3 8.2
2017-May-23 10:00N 56°50' E 012°30'1 2.3
2017-May-23 09:28N 56°52' E 012°29'17 8.5
2017-May-23 07:29N 56°51' E 011°58'5 9.6
2017-May-23 07:00N 56°55' E 011°60'10 6.8
2017-May-23 05:35N 57°02' E 011°48'0 0.1
2017-May-23 05:30N 57°02' E 011°48'610.3
2017-May-23 04:56N 57°03' E 011°58'9 1.8
2017-May-22 23:49N 57°07' E 012°15'13 2.1
2017-May-22 17:40N 57°10' E 011°52'5 7.0
2017-May-22 17:00N 57°11' E 011°44'3 6.5
2017-May-22 16:30N 57°14' E 011°40'610.7
2017-May-22 15:58N 57°19' E 011°40'3 6.5
2017-May-22 15:30N 57°20' E 011°46'3 6.6
2017-May-22 15:00N 57°21' E 011°52'7 7.4
2017-May-22 14:01N 57°26' E 011°42'2 4.3
2017-May-22 13:31N 57°28' E 011°42'4 8.7
2017-May-22 13:00N 57°30' E 011°48'3 6.3
2017-May-22 12:30N 57°32' E 011°44'5 9.7
2017-May-22 12:00N 57°33' E 011°35'3 5.4
2017-May-22 11:30N 57°34' E 011°30'510.8
2017-May-22 11:00N 57°38' E 011°24'510.5
2017-May-22 10:30N 57°43' E 011°19'711.1
2017-May-22 09:51N 57°49' E 011°12'410.8
2017-May-22 09:29N 57°52' E 011°08'5 9.5
2017-May-22 09:00N 57°56' E 011°03'3 6.6
2017-May-22 08:30N 57°59' E 011°06'5 9.2
2017-May-22 08:00N 58°02' E 011°11'4 9.0
2017-May-22 07:30N 58°06' E 011°16'5 9.5
2017-May-22 07:00N 58°10' E 011°21'510.1
2017-May-22 06:30N 58°14' E 011°25'1 0.6
2017-May-22 04:58N 58°15' E 011°27'0 0.0
2017-May-22 04:30N 58°15' E 011°27'0 0.0
2017-May-22 03:57N 58°15' E 011°27'0 0.0
2017-May-22 01:45N 58°15' E 011°27'0 0.0
2017-May-21 11:30N 58°15' E 011°27'0 0.0
2017-May-19 14:57N 58°15' E 011°27'9 9.8
2017-May-19 14:00N 58°14' E 011°09'5 9.6
2017-May-19 13:30N 58°13' E 011°00'510.3
2017-May-19 13:00N 58°12' E 010°51'4 7.5
2017-May-19 12:29N 58°13' E 010°44'3 6.3
2017-May-19 11:59N 58°14' E 010°38'510.5
2017-May-19 11:29N 58°18' E 010°44'510.3
2017-May-19 11:00N 58°22' E 010°50'3 6.1
2017-May-19 10:30N 58°24' E 010°53'4 8.7
2017-May-19 10:00N 58°27' E 010°46'4 7.9
2017-May-19 09:27N 58°29' E 010°38'1 2.2
2017-May-19 08:54N 58°29' E 010°36'410.3
2017-May-19 08:30N 58°31' E 010°43'3 6.1
2017-May-19 07:59N 58°34' E 010°46'510.2
2017-May-19 07:31N 58°38' E 010°44'510.5
2017-May-19 07:00N 58°43' E 010°40'4 7.3
2017-May-19 06:30N 58°47' E 010°42'4 9.0
2017-May-19 06:01N 58°51' E 010°46'4 8.7
2017-May-19 05:31N 58°53' E 010°53'510.2
2017-May-19 05:00N 58°56' E 011°01'5 9.1
2017-May-19 04:31N 58°56' E 011°10'0 0.3
2017-May-19 04:00N 58°56' E 011°10'0 0.0
2017-May-19 03:30N 58°56' E 011°10'0 0.0
2017-May-19 03:00N 58°56' E 011°10'0 0.0
2017-May-19 02:31N 58°56' E 011°10'0 0.0
2017-May-19 02:00N 58°56' E 011°10'0 0.0
2017-May-19 01:30N 58°56' E 011°10'0 0.0
2017-May-19 01:01N 58°56' E 011°10'0 0.0
2017-May-19 00:30N 58°56' E 011°10'0 0.0
2017-May-19 00:00N 58°56' E 011°10'0 0.0
2017-May-18 23:30N 58°56' E 011°10'0 0.0
2017-May-18 23:00N 58°56' E 011°10'0 0.0
2017-May-18 22:30N 58°56' E 011°10'0 0.0
2017-May-18 22:00N 58°56' E 011°10'0 0.0
2017-May-18 21:30N 58°56' E 011°10'0 0.0
2017-May-18 21:01N 58°56' E 011°10'0 0.0
2017-May-18 20:30N 58°56' E 011°10'0 0.0
2017-May-18 20:00N 58°56' E 011°10'0 0.0
2017-May-18 19:30N 58°56' E 011°10'0 0.0
2017-May-18 19:00N 58°56' E 011°10'0 0.0
2017-May-18 18:30N 58°56' E 011°10'0 0.0
2017-May-18 18:00N 58°56' E 011°10'0 0.0
2017-May-18 17:30N 58°56' E 011°10'0 0.0
2017-May-18 17:00N 58°56' E 011°10'3 6.0
2017-May-18 16:31N 58°55' E 011°05'4 7.2
2017-May-18 16:00N 58°51' E 011°06'2 3.3
2017-May-18 15:30N 58°49' E 011°05'2 3.9
2017-May-18 15:00N 58°48' E 011°07'5 9.5
2017-May-18 14:31N 58°43' E 011°10'6 6.2
2017-May-18 13:30N 58°38' E 011°16'2 4.9
2017-May-18 13:00N 58°36' E 011°12'1 2.3
2017-May-18 12:30N 58°36' E 011°14'1 2.2
2017-May-18 12:01N 58°35' E 011°14'1 1.9
2017-May-18 11:25N 58°34' E 011°15'2 4.0
2017-May-18 11:00N 58°33' E 011°13'2 3.5
2017-May-18 10:30N 58°32' E 011°15'0 0.5
2017-May-18 10:00N 58°32' E 011°15'4 8.6
2017-May-18 09:30N 58°28' E 011°13'5 9.4
2017-May-18 09:00N 58°23' E 011°13'1 2.0
2017-May-18 08:30N 58°23' E 011°14'1 2.4
2017-May-18 08:00N 58°22' E 011°14'1 2.9
2017-May-18 07:30N 58°21' E 011°14'2 3.6
2017-May-18 07:00N 58°19' E 011°13'5 9.8
2017-May-18 06:30N 58°16' E 011°21'  

Dump ship's entire track history